Time;durP1;ratioP1;P1;durP2;ratioP2;P2;SDS_P1;SDS_P2;PMS_P1;PMS_P2;Temp;Humidity;BMP_temperature;BMP_pressure;BME280_temperature;BME280_humidity;BME280_pressure;Samples;Min_cycle;Max_cycle;Signal;HPM_P1;HPM_P2
2023/03/05 00:10:58;;;;;;;55.93;23.30;;;;;;;8.28;100.00;99177.84;31357972;28;20052;-78
2023/03/05 00:26:06;;;;;;;55.47;25.33;;;;;;;7.98;100.00;99143.84;31359208;28;20049;-77
2023/03/05 00:41:08;;;;;;;63.80;23.97;;;;;;;7.91;100.00;99127.03;31344292;28;20057;-79
2023/03/05 00:56:11;;;;;;;61.83;23.37;;;;;;;7.93;100.00;99152.47;31352862;28;20041;-77
2023/03/05 01:11:13;;;;;;;60.43;23.63;;;;;;;7.86;100.00;99153.38;31327575;28;20461;-78
2023/03/05 01:26:15;;;;;;;60.37;24.07;;;;;;;7.80;100.00;99149.66;31324874;28;20063;-76
2023/03/05 01:41:18;;;;;;;61.60;23.53;;;;;;;7.80;100.00;99149.66;31362010;28;20056;-77
2023/03/05 01:56:20;;;;;;;66.03;26.33;;;;;;;7.66;100.00;99176.25;31341232;28;20053;-85
2023/03/05 02:11:22;;;;;;;65.17;24.37;;;;;;;7.26;100.00;99197.19;31367849;28;20057;-87
2023/03/05 02:26:24;;;;;;;62.60;25.50;;;;;;;7.34;100.00;99230.94;31361803;28;20053;-84
2023/03/05 02:41:27;;;;;;;56.97;21.63;;;;;;;7.23;100.00;99241.22;31357265;28;20049;-86
2023/03/05 02:56:29;;;;;;;50.67;20.53;;;;;;;7.07;100.00;99269.66;31354643;28;20102;-87
2023/03/05 03:11:31;;;;;;;49.77;19.90;;;;;;;6.82;100.00;99283.59;31346761;28;20122;-86
2023/03/05 03:26:33;;;;;;;43.97;18.90;;;;;;;6.93;100.00;99283.41;31322777;28;20046;-84
2023/03/05 03:41:40;;;;;;;46.73;18.80;;;;;;;6.84;100.00;99296.69;31421260;28;20053;-85
2023/03/05 03:56:42;;;;;;;41.70;15.30;;;;;;;6.58;100.00;99302.91;31391291;28;20490;-85
2023/03/05 04:11:44;;;;;;;36.50;15.70;;;;;;;6.39;100.00;99305.09;31388839;28;20060;-85
2023/03/05 04:26:46;;;;;;;35.77;13.83;;;;;;;6.31;100.00;99321.78;31385103;28;20056;-85
2023/03/05 04:41:48;;;;;;;38.93;14.43;;;;;;;6.33;100.00;99331.00;31378879;28;20098;-78
2023/03/05 04:56:50;;;;;;;36.67;13.00;;;;;;;6.67;100.00;99332.78;31338062;28;20655;-79
2023/03/05 05:11:52;;;;;;;36.10;11.77;;;;;;;6.38;100.00;99346.69;31347739;28;20054;-77
2023/03/05 05:26:54;;;;;;;26.20;10.80;;;;;;;6.66;100.00;99352.84;31309898;28;20060;-77
2023/03/05 05:41:56;;;;;;;32.53;14.17;;;;;;;6.73;100.00;99366.22;31345835;28;20056;-84
2023/03/05 05:56:58;;;;;;;31.50;12.70;;;;;;;7.54;100.00;99380.25;31379691;28;20049;-86
2023/03/05 06:12:01;;;;;;;29.87;11.80;;;;;;;9.72;100.00;99379.44;31360071;28;20092;-79
2023/03/05 06:27:05;;;;;;;23.33;10.80;;;;;;;11.26;90.53;99380.53;31365790;28;20672;-77
2023/03/05 06:42:07;;;;;;;24.17;10.30;;;;;;;12.14;78.93;99397.63;31344826;28;20056;-77
2023/03/05 06:57:09;;;;;;;24.97;10.87;;;;;;;13.37;62.30;99406.81;31352761;28;20049;-84
2023/03/05 07:12:11;;;;;;;18.17;6.67;;;;;;;13.96;52.77;99410.09;31375057;28;20060;-84
2023/03/05 07:27:13;;;;;;;13.50;6.57;;;;;;;14.87;44.92;99409.81;31390672;28;20045;-84
2023/03/05 07:42:15;;;;;;;15.83;5.87;;;;;;;15.08;41.21;99391.63;31368281;28;20049;-84
2023/03/05 07:57:17;;;;;;;9.60;5.00;;;;;;;15.65;39.04;99402.44;31363802;28;20045;-83
2023/03/05 08:12:19;;;;;;;8.57;4.43;;;;;;;16.46;37.07;99422.00;31358355;28;20061;-85
2023/03/05 14:04:51;;;;;;;1.50;1.10;;;;;;;10.66;33.30;99370.88;31845833;22;1384825;-82
2023/03/05 14:20:20;;;;;;;3.93;1.63;;;;;;;10.63;33.75;99371.78;31322006;28;20053;-79
2023/03/05 14:35:27;;;;;;;2.53;1.20;;;;;;;10.48;34.49;99369.50;31337397;28;20049;-82
2023/03/05 14:50:45;;;;;;;3.07;1.07;;;;;;;10.84;35.07;99376.53;31340221;28;20072;-78
2023/03/05 15:05:50;;;;;;;1.90;1.50;;;;;;;10.64;34.74;99378.69;31341037;28;20360;-78
2023/03/05 15:20:53;;;;;;;25.63;8.97;;;;;;;10.48;35.17;99380.34;31327581;28;20114;-80
2023/03/05 15:35:55;;;;;;;5.97;2.83;;;;;;;10.19;35.59;99390.53;31367945;28;20052;-79
2023/03/05 15:50:58;;;;;;;3.90;1.90;;;;;;;9.86;36.22;99403.47;31313685;28;20055;-80
2023/03/05 16:06:00;;;;;;;2.50;1.23;;;;;;;9.72;37.12;99410.00;31389105;28;20098;-90
2023/03/05 16:21:03;;;;;;;2.40;1.30;;;;;;;9.53;37.74;99421.75;31445293;28;20125;-87
2023/03/05 16:36:26;;;;;;;2.73;1.87;;;;;;;9.45;38.14;99428.53;31411989;28;22213;-76
2023/03/05 16:51:28;;;;;;;8.10;2.70;;;;;;;8.67;39.79;99422.34;31381645;28;20184;-88
2023/03/05 17:06:34;;;;;;;9.43;3.20;;;;;;;8.46;40.85;99421.63;31370781;28;20060;-81
2023/03/05 17:21:36;;;;;;;16.67;4.77;;;;;;;8.70;41.67;99408.72;31387129;28;20414;-81
2023/03/05 17:36:40;;;;;;;13.03;4.67;;;;;;;8.50;41.77;99422.28;31411329;28;20068;-86
2023/03/05 17:51:42;;;;;;;11.93;4.40;;;;;;;8.36;42.60;99417.22;31408764;28;20057;-86
2023/03/05 18:06:48;;;;;;;14.23;4.53;;;;;;;8.38;42.41;99425.66;31352399;28;20057;-82
2023/03/05 18:21:50;;;;;;;8.57;3.20;;;;;;;8.25;42.77;99416.66;31322134;28;20044;-81
2023/03/05 18:36:54;;;;;;;62.07;24.77;;;;;;;8.35;43.34;99423.78;31379790;28;20541;-81
2023/03/05 18:51:56;;;;;;;9.53;3.47;;;;;;;8.14;42.75;99427.69;31314114;28;20056;-83
2023/03/05 19:07:07;;;;;;;6.60;2.20;;;;;;;7.88;43.40;99437.47;31344021;28;20076;-85
2023/03/05 19:23:06;;;;;;;5.00;2.10;;;;;;;8.02;43.59;99431.03;31249661;28;20057;-83
2023/03/05 19:38:11;;;;;;;4.73;2.30;;;;;;;7.73;43.63;99422.72;31152438;28;20056;-81
2023/03/05 19:53:13;;;;;;;8.77;3.20;;;;;;;7.69;45.23;99424.72;31217782;28;20037;-85
2023/03/05 20:08:16;;;;;;;16.80;6.73;;;;;;;7.45;45.82;99404.31;31354935;28;20081;-86
2023/03/05 20:23:19;;;;;;;45.67;15.47;;;;;;;7.09;47.85;99396.81;31397459;28;20075;-84
2023/03/05 20:38:28;;;;;;;18.97;6.13;;;;;;;7.21;47.33;99394.72;31414102;28;20029;-86
2023/03/05 20:53:30;;;;;;;54.47;21.87;;;;;;;5.67;57.35;99401.47;31367948;28;20048;-87
2023/03/05 21:08:35;;;;;;;60.53;23.67;;;;;;;5.48;65.58;99383.22;31400917;28;20061;-85
2023/03/05 21:23:37;;;;;;;56.43;23.20;;;;;;;5.24;71.58;99374.25;31416978;28;20532;-83
2023/03/05 21:38:40;;;;;;;59.90;18.87;;;;;;;5.11;80.43;99375.91;31378130;28;20494;-79
2023/03/05 21:53:45;;;;;;;30.30;14.53;;;;;;;5.28;79.24;99371.50;31328296;28;20481;-83
2023/03/05 22:08:47;;;;;;;23.47;9.70;;;;;;;4.97;85.38;99370.63;31353181;28;20122;-83
2023/03/05 22:23:50;;;;;;;26.67;9.13;;;;;;;5.05;86.03;99367.50;31390779;28;20506;-81
2023/03/05 22:38:52;;;;;;;19.43;8.30;;;;;;;5.34;85.27;99361.84;31323520;28;20095;-81
2023/03/05 22:53:54;;;;;;;25.43;8.10;;;;;;;4.94;87.83;99372.22;31360218;28;20102;-79
2023/03/05 23:08:55;;;;;;;13.40;6.97;;;;;;;4.97;88.80;99374.09;31386480;28;20510;-78
2023/03/05 23:23:58;;;;;;;16.80;6.50;;;;;;;4.63;94.15;99362.47;31321570;28;20490;-79
2023/03/05 23:39:00;;;;;;;12.87;6.00;;;;;;;4.63;93.73;99375.91;31362475;28;20045;-79
2023/03/05 23:54:03;;;;;;;11.63;5.87;;;;;;;4.59;95.42;99370.56;31348053;28;20040;-80
